createdAt,value
2023-02-21T00:01:34.558Z,96727.85
2023-02-21T00:04:20.125Z,96715.40
2023-02-21T00:07:06.754Z,96721.14
2023-02-21T00:09:52.950Z,96720.59
2023-02-21T00:12:41.073Z,96712.59
2023-02-21T00:15:26.753Z,96708.63
2023-02-21T00:18:12.681Z,96694.45
2023-02-21T00:20:58.431Z,96705.89
2023-02-21T00:35:22.153Z,96687.55
2023-02-21T00:38:10.199Z,96680.98
2023-02-21T00:40:57.212Z,96672.59
2023-02-21T00:43:52.204Z,96671.98
2023-02-21T00:46:39.628Z,96669.85
2023-02-21T00:49:29.101Z,96667.69
2023-02-21T00:52:15.930Z,96663.21
2023-02-21T00:55:02.949Z,96659.67
2023-02-21T00:57:50.044Z,96656.38
2023-02-21T01:00:42.178Z,96655.67
2023-02-21T01:03:30.270Z,96657.50
2023-02-21T01:06:17.121Z,96657.35
2023-02-21T01:09:04.906Z,96657.48
2023-02-21T01:11:52.289Z,96665.00
2023-02-21T01:14:39.412Z,96668.45
2023-02-21T01:17:26.221Z,96674.73
2023-02-21T01:20:13.473Z,96669.16
2023-02-21T01:23:01.088Z,96664.46
2023-02-21T01:28:53.747Z,96652.32
2023-02-21T01:31:41.163Z,96649.23
2023-02-21T01:34:28.032Z,96648.89
2023-02-21T01:37:18.151Z,96639.46
2023-02-21T01:40:05.183Z,96632.42
2023-02-21T01:42:51.815Z,96617.39
2023-02-21T01:45:42.325Z,96620.44
2023-02-21T01:48:32.670Z,96615.10
2023-02-21T01:51:19.783Z,96612.45
2023-02-21T01:54:07.029Z,96607.56
2023-02-21T01:56:53.956Z,96610.30
2023-02-21T01:59:42.201Z,96606.83
2023-02-21T02:02:49.793Z,96622.70
2023-02-21T02:05:36.519Z,96620.50
2023-02-21T02:08:23.893Z,96632.63
2023-02-21T02:11:21.257Z,96652.23
2023-02-21T02:14:09.303Z,96654.63
2023-02-21T02:17:03.665Z,96661.13
2023-02-21T02:19:52.241Z,96675.08
2023-02-21T02:22:59.621Z,96669.93
2023-02-21T02:25:30.708Z,96670.56
2023-02-21T02:28:20.349Z,96679.95
2023-02-21T02:31:18.733Z,96685.04
2023-02-21T02:33:54.479Z,96683.53
2023-02-21T02:36:44.214Z,96684.09
2023-02-21T02:39:22.561Z,96683.65
2023-02-21T02:42:08.070Z,96691.07
2023-02-21T02:44:37.862Z,96696.64
2023-02-21T02:47:09.121Z,96692.23
2023-02-21T02:49:39.135Z,96695.44
2023-02-21T02:52:08.626Z,96692.61
2023-02-21T02:54:37.332Z,96696.02
2023-02-21T02:57:10.829Z,96694.16
2023-02-21T02:59:41.311Z,96695.41
2023-02-21T03:02:29.061Z,96702.87
2023-02-21T03:05:46.017Z,96732.10
2023-02-21T03:08:18.651Z,96714.56
2023-02-21T03:11:08.226Z,96724.30
2023-02-21T03:14:00.486Z,96726.29
2023-02-21T03:16:33.550Z,96736.33
2023-02-21T03:19:02.850Z,96734.67
2023-02-21T03:21:34.761Z,96729.05
2023-02-21T03:24:05.393Z,96729.86
2023-02-21T03:26:36.156Z,96726.61
2023-02-21T03:29:18.381Z,96718.47
2023-02-21T03:31:52.249Z,96715.73
2023-02-21T03:34:20.797Z,96714.48
2023-02-21T03:36:49.456Z,96716.77
2023-02-21T03:39:19.165Z,96716.55
2023-02-21T03:41:47.855Z,96719.27
2023-02-21T03:44:16.688Z,96722.25
2023-02-21T03:49:31.728Z,96713.15
2023-02-21T03:52:01.028Z,96712.61
2023-02-21T03:54:29.608Z,96708.35
2023-02-21T03:57:16.645Z,96712.02
2023-02-21T03:59:47.177Z,96716.86
2023-02-21T04:02:16.278Z,96713.16
2023-02-21T04:04:48.825Z,96712.94
2023-02-21T04:07:37.171Z,96711.52
2023-02-21T04:10:08.477Z,96713.63
2023-02-21T04:12:41.848Z,96709.54
2023-02-21T04:15:11.641Z,96703.92
2023-02-21T04:17:40.033Z,96707.71
2023-02-21T04:20:10.636Z,96712.01
2023-02-21T04:22:51.806Z,96712.39
2023-02-21T04:25:27.165Z,96708.80
2023-02-21T04:28:03.302Z,96711.34
2023-02-21T04:30:31.968Z,96714.63
2023-02-21T04:33:00.905Z,96720.53
2023-02-21T04:35:49.137Z,96729.48
2023-02-21T04:38:25.400Z,96735.04
2023-02-21T04:40:54.695Z,96736.94
2023-02-21T04:43:23.489Z,96730.56
2023-02-21T04:45:52.856Z,96728.10
2023-02-21T04:48:21.907Z,96719.81
2023-02-21T04:50:50.256Z,96706.57
2023-02-21T04:53:18.633Z,96712.39
2023-02-21T04:55:47.344Z,96724.29
2023-02-21T04:58:15.487Z,96724.30
2023-02-21T05:00:43.952Z,96735.23
2023-02-21T05:03:12.883Z,96734.45
2023-02-21T05:05:44.929Z,96737.58
2023-02-21T05:08:13.312Z,96742.05
2023-02-21T05:10:45.650Z,96741.91
2023-02-21T05:13:15.155Z,96755.18
2023-02-21T05:15:45.411Z,96743.59
2023-02-21T05:18:22.796Z,96734.50
2023-02-21T05:20:50.944Z,96734.27
2023-02-21T05:23:34.196Z,96725.38
2023-02-21T05:26:05.053Z,96725.75
2023-02-21T05:28:35.170Z,96731.83
2023-02-21T05:31:06.628Z,96734.17
2023-02-21T05:33:35.673Z,96743.23
2023-02-21T05:38:59.828Z,96742.50
2023-02-21T05:41:30.098Z,96741.13
2023-02-21T05:44:00.273Z,96733.22
2023-02-21T05:46:35.002Z,96732.44
2023-02-21T05:49:05.795Z,96734.90
2023-02-21T05:51:38.474Z,96733.36
2023-02-21T05:54:15.285Z,96731.98
2023-02-21T05:57:01.205Z,96718.38
2023-02-21T05:59:29.737Z,96711.83
2023-02-21T06:02:03.264Z,96718.73
2023-02-21T06:04:35.918Z,96721.13
2023-02-21T06:07:04.664Z,96725.27
2023-02-21T06:09:33.271Z,96733.37
2023-02-21T06:12:19.679Z,96729.27
2023-02-21T06:14:52.044Z,96732.34
2023-02-21T06:17:37.967Z,96729.15
2023-02-21T06:20:07.093Z,96724.08
2023-02-21T06:22:35.809Z,96726.52
2023-02-21T06:25:04.760Z,96726.44
2023-02-21T06:27:36.272Z,96732.53
2023-02-21T06:30:06.035Z,96735.83
2023-02-21T06:32:34.666Z,96729.20
2023-02-21T06:35:03.542Z,96727.61
2023-02-21T06:37:34.586Z,96732.31
2023-02-21T06:40:06.454Z,96724.78
2023-02-21T06:42:34.932Z,96727.79
2023-02-21T06:45:07.330Z,96719.48
2023-02-21T06:47:36.971Z,96720.80
2023-02-21T06:50:05.924Z,96725.42
2023-02-21T06:52:59.929Z,96736.08
2023-02-21T06:55:28.525Z,96740.50
2023-02-21T06:57:56.942Z,96733.87
2023-02-21T07:00:28.288Z,96737.09
2023-02-21T07:02:56.555Z,96743.94
2023-02-21T07:05:25.408Z,96746.91
2023-02-21T07:07:53.938Z,96742.34
2023-02-21T07:10:25.911Z,96734.58
2023-02-21T07:12:54.290Z,96740.61
2023-02-21T07:15:22.820Z,96736.91
2023-02-21T07:17:53.658Z,96737.23
2023-02-21T07:20:30.665Z,96728.84
2023-02-21T07:22:59.349Z,96728.83
2023-02-21T07:25:27.639Z,96731.22
2023-02-21T07:27:56.493Z,96732.99
2023-02-21T07:30:42.274Z,96729.55
2023-02-21T07:33:10.635Z,96741.08
2023-02-21T07:35:39.209Z,96733.88
2023-02-21T07:38:07.946Z,96731.27
2023-02-21T07:40:39.292Z,96724.92
2023-02-21T07:43:07.569Z,96728.72
2023-02-21T07:48:22.455Z,96731.98
2023-02-21T07:50:51.116Z,96731.51
2023-02-21T07:53:20.137Z,96732.54
2023-02-21T07:56:08.994Z,96730.08
2023-02-21T07:58:38.042Z,96725.83
2023-02-21T08:01:07.034Z,96720.45
2023-02-21T08:03:35.811Z,96731.34
2023-02-21T08:06:04.373Z,96736.17
2023-02-21T08:08:37.588Z,96735.95
2023-02-21T08:11:07.216Z,96739.62
2023-02-21T08:13:35.932Z,96740.78
2023-02-21T08:16:05.537Z,96735.27
2023-02-21T08:18:38.587Z,96737.56
2023-02-21T08:21:12.825Z,96732.66
2023-02-21T08:23:41.680Z,96736.13
2023-02-21T08:26:10.072Z,96737.55
2023-02-21T08:28:38.591Z,96736.70
2023-02-21T08:31:08.206Z,96737.27
2023-02-21T08:33:36.810Z,96734.33
2023-02-21T08:36:08.042Z,96730.64
2023-02-21T08:38:36.701Z,96733.63
2023-02-21T08:41:06.363Z,96736.48
2023-02-21T08:43:35.099Z,96740.02
2023-02-21T08:46:05.430Z,96734.70
2023-02-21T08:48:34.143Z,96731.44
2023-02-21T08:51:03.675Z,96724.02
2023-02-21T08:53:32.604Z,96724.77
2023-02-21T08:56:01.341Z,96724.91
2023-02-21T08:58:30.895Z,96728.23
2023-02-21T09:00:59.484Z,96726.60
2023-02-21T09:03:28.022Z,96720.42
2023-02-21T09:05:57.562Z,96714.40
2023-02-21T09:08:28.848Z,96710.30
2023-02-21T09:11:00.826Z,96719.38
2023-02-21T09:13:29.869Z,96719.19
2023-02-21T09:15:58.283Z,96712.59
2023-02-21T09:18:29.394Z,96701.86
2023-02-21T09:37:32.718Z,96711.76
2023-02-21T09:40:02.725Z,96755.14
2023-02-21T09:42:33.279Z,96750.63
2023-02-21T09:45:22.657Z,96763.38
2023-02-21T09:47:54.706Z,96754.14
2023-02-21T09:50:30.582Z,96744.69
2023-02-21T09:52:59.063Z,96743.23
2023-02-21T09:56:06.472Z,96747.82
2023-02-21T09:58:37.820Z,96757.48
2023-02-21T10:01:11.298Z,96760.35
2023-02-21T10:04:18.155Z,96769.25
2023-02-21T10:06:59.707Z,96769.45
2023-02-21T10:10:02.530Z,96764.35
2023-02-21T10:12:39.409Z,96769.02
2023-02-21T10:15:25.058Z,96760.45
2023-02-21T10:18:22.114Z,96766.96
2023-02-21T10:21:02.979Z,96761.77
2023-02-21T10:23:48.162Z,96760.97
2023-02-21T10:26:19.900Z,96752.27
2023-02-21T10:28:48.348Z,96754.48
2023-02-21T10:31:36.089Z,96747.46
2023-02-21T10:34:06.481Z,96753.46
2023-02-21T10:36:38.873Z,96752.11
2023-02-21T10:39:19.564Z,96748.41
2023-02-21T10:41:51.236Z,96749.73
2023-02-21T10:44:27.426Z,96755.98
2023-02-21T10:47:03.063Z,96753.09
2023-02-21T10:49:51.669Z,96752.16
2023-02-21T10:52:23.154Z,96755.37
2023-02-21T10:55:00.672Z,96756.79
2023-02-21T10:57:51.449Z,96764.41
2023-02-21T11:00:35.008Z,96763.95
2023-02-21T11:03:27.664Z,96762.95
2023-02-21T11:05:59.899Z,96759.13
2023-02-21T11:08:40.612Z,96766.30
2023-02-21T11:11:13.068Z,96763.92
2023-02-21T11:13:44.815Z,96766.23
2023-02-21T11:16:35.084Z,96770.41
2023-02-21T11:19:07.259Z,96781.02
2023-02-21T11:21:36.472Z,96792.98
2023-02-21T11:24:07.438Z,96786.98
2023-02-21T11:26:52.307Z,96794.91
2023-02-21T11:29:24.264Z,96791.96
2023-02-21T11:31:55.997Z,96788.18
2023-02-21T11:34:28.726Z,96793.86
2023-02-21T11:36:57.063Z,96794.77
2023-02-21T11:39:35.960Z,96800.55
2023-02-21T11:45:43.841Z,96811.36
2023-02-21T11:48:16.692Z,96804.21
2023-02-21T11:50:49.777Z,96801.20
2023-02-21T11:53:24.495Z,96810.67
2023-02-21T11:56:07.418Z,96813.83
2023-02-21T11:58:58.455Z,96806.14
2023-02-21T12:02:04.315Z,96798.21
2023-02-21T12:04:48.825Z,96804.05
2023-02-21T12:07:26.141Z,96792.30
2023-02-21T12:10:24.794Z,96807.58
2023-02-21T12:13:15.957Z,96811.55
2023-02-21T12:16:22.231Z,96813.27
2023-02-21T12:19:44.826Z,96817.77
2023-02-21T12:22:42.712Z,96825.09
2023-02-21T12:25:18.407Z,96830.34
2023-02-21T12:28:13.807Z,96822.81
2023-02-21T12:30:57.723Z,96833.90
2023-02-21T12:33:34.804Z,96848.66
2023-02-21T12:36:38.419Z,96845.30
2023-02-21T12:39:31.674Z,96846.25
2023-02-21T12:42:15.385Z,96839.48
2023-02-21T12:45:17.419Z,96847.23
2023-02-21T12:48:06.330Z,96847.64
2023-02-21T12:50:43.338Z,96851.67
2023-02-21T12:53:18.323Z,96852.40
2023-02-21T12:56:05.036Z,96850.45
2023-02-21T12:59:03.424Z,96863.99
2023-02-21T13:01:56.953Z,96862.73
2023-02-21T13:04:48.618Z,96874.55
2023-02-21T13:07:38.592Z,96871.23
2023-02-21T13:10:35.430Z,96883.19
2023-02-21T13:13:10.357Z,96889.40
2023-02-21T13:15:49.301Z,96890.52
2023-02-21T13:19:09.005Z,96903.52
2023-02-21T13:21:53.266Z,96903.79
2023-02-21T13:24:34.035Z,96910.42
2023-02-21T13:27:34.410Z,96917.06
2023-02-21T13:30:25.271Z,96925.29
2023-02-21T13:33:32.961Z,96922.70
2023-02-21T13:36:15.397Z,96926.33
2023-02-21T13:38:44.036Z,96931.98
2023-02-21T13:44:26.953Z,96940.83
2023-02-21T13:47:18.499Z,96948.80
2023-02-21T13:49:48.634Z,96955.73
2023-02-21T13:52:37.269Z,96957.73
2023-02-21T13:55:35.206Z,96966.59
2023-02-21T13:58:05.528Z,96964.95
2023-02-21T14:00:34.376Z,96967.96
2023-02-21T14:03:05.842Z,96980.10
2023-02-21T14:05:43.474Z,96992.73
2023-02-21T14:08:32.457Z,96996.14
2023-02-21T14:11:07.736Z,97002.58
2023-02-21T14:13:57.868Z,96995.85
2023-02-21T14:16:59.314Z,96998.25
2023-02-21T14:19:42.661Z,96998.00
2023-02-21T14:22:20.439Z,97006.91
2023-02-21T14:24:51.042Z,97006.83
2023-02-21T14:27:19.450Z,97008.70
2023-02-21T14:30:13.018Z,97019.11
2023-02-21T14:32:44.642Z,97012.73
2023-02-21T14:35:32.750Z,97016.65
2023-02-21T14:38:04.554Z,97022.50
2023-02-21T14:40:33.113Z,97035.27
2023-02-21T14:43:26.284Z,97039.13
2023-02-21T14:46:25.105Z,97040.91
2023-02-21T14:49:28.217Z,97047.42
2023-02-21T15:03:00.505Z,97064.41
2023-02-21T15:05:30.571Z,97062.16
2023-02-21T15:08:05.414Z,97073.68
2023-02-21T15:10:41.389Z,97074.85
2023-02-21T15:13:23.806Z,97074.20
2023-02-21T15:16:05.325Z,97079.27
2023-02-21T15:18:35.141Z,97084.21
2023-02-21T15:21:05.203Z,97086.18
2023-02-21T15:23:34.917Z,97087.88
2023-02-21T15:26:22.185Z,97088.33
2023-02-21T15:29:07.672Z,97084.48
2023-02-21T15:32:09.192Z,97094.70
2023-02-21T15:34:42.788Z,97100.45
2023-02-21T15:37:24.928Z,97095.80
2023-02-21T15:39:58.235Z,97103.27
2023-02-21T15:42:26.363Z,97110.78
2023-02-21T15:45:00.429Z,97111.63
2023-02-21T15:47:30.718Z,97103.73
2023-02-21T15:50:04.401Z,97102.75
2023-02-21T15:55:37.929Z,97117.91
2023-02-21T15:58:06.560Z,97119.98
2023-02-21T16:00:36.759Z,97125.30
2023-02-21T16:03:42.959Z,97128.77
2023-02-21T16:06:25.535Z,97139.46
2023-02-21T16:12:19.212Z,97147.69
2023-02-21T16:14:59.576Z,97150.77
2023-02-21T16:17:55.245Z,97158.68
2023-02-21T16:20:32.169Z,97162.73
2023-02-21T16:26:19.454Z,97171.83
2023-02-21T16:28:47.907Z,97177.56
2023-02-21T16:34:28.970Z,97179.73
2023-02-21T16:37:09.990Z,97190.90
2023-02-21T16:42:26.497Z,97194.50
2023-02-21T16:44:55.118Z,97197.04
2023-02-21T16:47:23.862Z,97190.90
2023-02-21T16:49:52.627Z,97203.83
2023-02-21T16:52:24.397Z,97212.50
2023-02-21T16:54:52.732Z,97218.63
2023-02-21T16:57:20.993Z,97224.05
2023-02-21T16:59:49.208Z,97233.15
2023-02-21T17:02:17.532Z,97241.68
2023-02-21T17:04:46.816Z,97245.94
2023-02-21T17:07:15.473Z,97250.80
2023-02-21T17:09:43.721Z,97257.20
2023-02-21T17:12:29.369Z,97263.20
2023-02-21T17:14:57.726Z,97269.05
2023-02-21T17:17:27.210Z,97272.94
2023-02-21T17:19:55.442Z,97271.13
2023-02-21T17:22:41.649Z,97277.03
2023-02-21T17:25:10.590Z,97282.48
2023-02-21T17:27:38.833Z,97283.72
2023-02-21T17:30:08.437Z,97283.31
2023-02-21T17:32:36.885Z,97284.34
2023-02-21T17:35:05.859Z,97282.65
2023-02-21T17:37:37.805Z,97284.88
2023-02-21T17:40:06.246Z,97285.08
2023-02-21T17:42:34.925Z,97287.96
2023-02-21T17:45:07.282Z,97286.87
2023-02-21T17:47:36.643Z,97291.03
2023-02-21T17:52:54.704Z,97292.23
2023-02-21T17:55:26.084Z,97290.92
2023-02-21T18:00:43.227Z,97290.38
2023-02-21T18:03:12.270Z,97292.77
2023-02-21T18:05:40.475Z,97294.90
2023-02-21T18:08:08.831Z,97296.20
2023-02-21T18:10:37.156Z,97297.52
2023-02-21T18:13:05.988Z,97300.84
2023-02-21T18:15:51.700Z,97310.10
2023-02-21T18:18:25.684Z,97307.79
2023-02-21T18:20:54.058Z,97311.15
2023-02-21T18:23:23.378Z,97318.50
2023-02-21T18:25:51.717Z,97318.19
2023-02-21T18:28:20.259Z,97319.12
2023-02-21T18:30:51.478Z,97322.23
2023-02-21T18:33:21.041Z,97324.04
2023-02-21T18:35:51.056Z,97330.38
2023-02-21T18:38:19.946Z,97332.80
2023-02-21T18:40:49.010Z,97332.59
2023-02-21T18:43:29.954Z,97333.16
2023-02-21T18:45:58.639Z,97336.45
2023-02-21T18:51:15.171Z,97337.70
2023-02-21T18:53:43.960Z,97338.45
2023-02-21T18:56:13.477Z,97342.48
2023-02-21T19:01:27.870Z,97338.73
2023-02-21T19:04:01.668Z,97352.09
2023-02-21T19:06:30.031Z,97359.45
2023-02-21T19:08:58.388Z,97368.40
2023-02-21T19:11:26.509Z,97366.66
2023-02-21T19:13:57.868Z,97364.79
2023-02-21T19:16:26.482Z,97367.69
2023-02-21T19:18:57.972Z,97367.48
2023-02-21T19:21:45.064Z,97369.52
2023-02-21T19:24:13.236Z,97372.13
2023-02-21T19:26:42.958Z,97373.05
2023-02-21T19:29:12.020Z,97373.95
2023-02-21T19:31:40.331Z,97379.60
2023-02-21T19:34:10.364Z,97384.22
2023-02-21T19:36:39.199Z,97397.11
2023-02-21T19:39:24.892Z,97393.97
2023-02-21T19:41:53.418Z,97397.16
2023-02-21T19:44:21.508Z,97401.40
2023-02-21T19:46:50.129Z,97410.71
2023-02-21T19:49:24.320Z,97413.98
2023-02-21T19:51:53.841Z,97413.57
2023-02-21T19:54:30.176Z,97414.57
2023-02-21T19:56:58.678Z,97424.73
2023-02-21T19:59:30.245Z,97417.52
2023-02-21T20:02:03.869Z,97416.40
2023-02-21T20:04:33.858Z,97419.39
2023-02-21T20:07:03.805Z,97421.57
2023-02-21T20:09:32.150Z,97426.95
2023-02-21T20:12:02.481Z,97432.41
2023-02-21T20:14:31.023Z,97435.02
2023-02-21T20:17:02.218Z,97438.45
2023-02-21T20:19:31.332Z,97439.17
2023-02-21T20:21:59.619Z,97446.95
2023-02-21T20:24:30.615Z,97444.71
2023-02-21T20:26:58.995Z,97449.45
2023-02-21T20:29:27.573Z,97450.29
2023-02-21T20:34:41.822Z,97443.46
2023-02-21T20:37:12.109Z,97446.05
2023-02-21T20:39:40.654Z,97447.11
2023-02-21T20:42:09.179Z,97446.08
2023-02-21T20:44:38.430Z,97453.40
2023-02-21T20:47:07.206Z,97452.65
2023-02-21T20:49:52.778Z,97455.39
2023-02-21T20:52:40.388Z,97454.96
2023-02-21T20:55:09.995Z,97458.29
2023-02-21T20:57:38.537Z,97464.05
2023-02-21T21:00:09.509Z,97462.30
2023-02-21T21:02:39.160Z,97462.65
2023-02-21T21:05:13.879Z,97464.52
2023-02-21T21:07:46.364Z,97465.00
2023-02-21T21:10:19.189Z,97463.27
2023-02-21T21:12:49.656Z,97464.61
2023-02-21T21:15:19.413Z,97464.24
2023-02-21T21:17:48.682Z,97470.16
2023-02-21T21:20:38.931Z,97474.91
2023-02-21T21:23:07.658Z,97474.40
2023-02-21T21:25:39.768Z,97472.77
2023-02-21T21:28:08.094Z,97472.79
2023-02-21T21:30:37.381Z,97480.89
2023-02-21T21:33:07.613Z,97478.96
2023-02-21T21:35:58.730Z,97478.73
2023-02-21T21:38:29.053Z,97482.11
2023-02-21T21:40:57.939Z,97490.75
2023-02-21T21:43:28.675Z,97490.48
2023-02-21T21:45:58.585Z,97498.16
2023-02-21T21:48:26.801Z,97508.33
2023-02-21T21:50:55.613Z,97515.69
2023-02-21T21:53:24.029Z,97536.14
2023-02-21T21:55:52.243Z,97551.59
2023-02-21T21:58:26.937Z,97559.85
2023-02-21T22:00:55.191Z,97569.84
2023-02-21T22:03:24.199Z,97575.50
2023-02-21T22:05:52.470Z,97576.15
2023-02-21T22:08:23.007Z,97579.05
2023-02-21T22:10:52.623Z,97584.09
2023-02-21T22:13:22.024Z,97586.40
2023-02-21T22:15:53.364Z,97589.10
2023-02-21T22:18:23.538Z,97594.42
2023-02-21T22:20:52.173Z,97595.01
2023-02-21T22:23:24.441Z,97600.20
2023-02-21T22:28:39.727Z,97608.27
2023-02-21T22:31:08.894Z,97613.75
2023-02-21T22:33:37.595Z,97622.94
2023-02-21T22:36:06.132Z,97620.59
2023-02-21T22:38:36.129Z,97620.66
2023-02-21T22:41:04.667Z,97619.58
2023-02-21T22:43:39.196Z,97626.76
2023-02-21T22:46:08.360Z,97630.37
2023-02-21T22:48:36.524Z,97635.14
2023-02-21T22:51:06.393Z,97631.11
2023-02-21T22:53:35.206Z,97627.96
2023-02-21T22:56:25.436Z,97632.11
2023-02-21T22:58:57.160Z,97637.48
2023-02-21T23:01:26.602Z,97643.90
2023-02-21T23:04:10.442Z,97649.77
2023-02-21T23:06:40.039Z,97654.94
2023-02-21T23:09:14.396Z,97661.78
2023-02-21T23:11:49.343Z,97663.51
2023-02-21T23:14:18.308Z,97668.11
2023-02-21T23:16:47.718Z,97668.31
2023-02-21T23:19:15.781Z,97668.56
2023-02-21T23:21:48.094Z,97667.21
